sensor_id;sensor_type;location;lat;lon;timestamp;pressure;altitude;pressure_sealevel;temperature;humidity
60852;BME280;48553;50.766;2.900;2023-01-29T00:00:52;102411.22;;;3.08;83.59
60852;BME280;48553;50.766;2.900;2023-01-29T00:03:52;102401.94;;;3.04;83.88
60852;BME280;48553;50.766;2.900;2023-01-29T00:06:53;102395.72;;;3.03;83.94
60852;BME280;48553;50.766;2.900;2023-01-29T00:09:53;102390.06;;;3.05;83.89
60852;BME280;48553;50.766;2.900;2023-01-29T00:12:54;102377.34;;;3.05;84.04
60852;BME280;48553;50.766;2.900;2023-01-29T00:15:55;102380.28;;;3.04;83.92
60852;BME280;48553;50.766;2.900;2023-01-29T00:18:56;102382.16;;;3.03;84.06
60852;BME280;48553;50.766;2.900;2023-01-29T00:21:57;102381.34;;;3.03;83.83
60852;BME280;48553;50.766;2.900;2023-01-29T00:24:57;102390.53;;;3.02;83.85
60852;BME280;48553;50.766;2.900;2023-01-29T00:27:58;102386.19;;;3.01;83.80
60852;BME280;48553;50.766;2.900;2023-01-29T00:31:15;102382.66;;;3.00;84.06
60852;BME280;48553;50.766;2.900;2023-01-29T00:34:16;102368.56;;;2.98;84.17
60852;BME280;48553;50.766;2.900;2023-01-29T00:37:16;102372.06;;;2.99;84.29
60852;BME280;48553;50.766;2.900;2023-01-29T00:40:17;102373.38;;;2.96;83.91
60852;BME280;48553;50.766;2.900;2023-01-29T00:43:17;102374.19;;;2.97;84.21
60852;BME280;48553;50.766;2.900;2023-01-29T00:46:38;102367.75;;;2.98;83.95
60852;BME280;48553;50.766;2.900;2023-01-29T00:49:39;102374.19;;;2.97;84.28
60852;BME280;48553;50.766;2.900;2023-01-29T00:52:39;102371.25;;;2.98;84.19
60852;BME280;48553;50.766;2.900;2023-01-29T00:55:40;102375.84;;;2.98;84.15
60852;BME280;48553;50.766;2.900;2023-01-29T00:58:40;102375.28;;;2.96;84.36
60852;BME280;48553;50.766;2.900;2023-01-29T01:01:41;102367.16;;;2.96;84.57
60852;BME280;48553;50.766;2.900;2023-01-29T01:05:00;102363.28;;;2.91;84.55
60852;BME280;48553;50.766;2.900;2023-01-29T01:08:05;102346.81;;;2.93;84.73
60852;BME280;48553;50.766;2.900;2023-01-29T01:11:28;102348.44;;;2.94;84.51
60852;BME280;48553;50.766;2.900;2023-01-29T01:14:28;102334.91;;;2.94;84.44
60852;BME280;48553;50.766;2.900;2023-01-29T01:17:29;102346.81;;;2.93;84.50
60852;BME280;48553;50.766;2.900;2023-01-29T01:20:32;102349.75;;;2.91;84.75
60852;BME280;48553;50.766;2.900;2023-01-29T01:23:33;102355.16;;;2.91;84.59
60852;BME280;48553;50.766;2.900;2023-01-29T01:26:33;102346.22;;;2.91;84.57
60852;BME280;48553;50.766;2.900;2023-01-29T01:29:34;102341.38;;;2.93;84.64
60852;BME280;48553;50.766;2.900;2023-01-29T01:32:34;102343.53;;;2.91;84.79
60852;BME280;48553;50.766;2.900;2023-01-29T01:35:37;102331.59;;;2.92;84.72
60852;BME280;48553;50.766;2.900;2023-01-29T01:38:38;102337.25;;;2.90;84.66
60852;BME280;48553;50.766;2.900;2023-01-29T01:41:43;102339.06;;;2.85;84.86
60852;BME280;48553;50.766;2.900;2023-01-29T01:45:02;102332.84;;;2.84;84.79
60852;BME280;48553;50.766;2.900;2023-01-29T01:48:12;102343.66;;;2.84;84.68
60852;BME280;48553;50.766;2.900;2023-01-29T01:51:14;102340.47;;;2.87;84.59
60852;BME280;48553;50.766;2.900;2023-01-29T01:54:26;102339.88;;;2.85;84.89
60852;BME280;48553;50.766;2.900;2023-01-29T01:57:29;102344.50;;;2.85;84.80
60852;BME280;48553;50.766;2.900;2023-01-29T02:00:31;102344.50;;;2.85;84.91
60852;BME280;48553;50.766;2.900;2023-01-29T02:03:34;102345.53;;;2.84;84.47
60852;BME280;48553;50.766;2.900;2023-01-29T02:06:57;102340.63;;;2.81;84.96
60852;BME280;48553;50.766;2.900;2023-01-29T02:10:18;102346.63;;;2.83;84.87
60852;BME280;48553;50.766;2.900;2023-01-29T02:13:20;102358.25;;;2.83;84.97
60852;BME280;48553;50.766;2.900;2023-01-29T02:16:21;102352.59;;;2.85;84.86
60852;BME280;48553;50.766;2.900;2023-01-29T02:39:32;102364.75;;;2.82;84.96
60852;BME280;48553;50.766;2.900;2023-01-29T02:43:06;102366.78;;;2.75;85.36
60852;BME280;48553;50.766;2.900;2023-01-29T02:49:32;102367.94;;;2.79;85.15
60852;BME280;48553;50.766;2.900;2023-01-29T02:55:39;102368.78;;;2.80;85.13
60852;BME280;48553;50.766;2.900;2023-01-29T02:58:55;102366.28;;;2.78;85.17
60852;BME280;48553;50.766;2.900;2023-01-29T03:02:02;102364.41;;;2.79;84.95
60852;BME280;48553;50.766;2.900;2023-01-29T03:05:10;102367.94;;;2.79;85.31
60852;BME280;48553;50.766;2.900;2023-01-29T03:08:17;102369.81;;;2.79;85.46
60852;BME280;48553;50.766;2.900;2023-01-29T03:11:19;102361.47;;;2.80;85.22
60852;BME280;48553;50.766;2.900;2023-01-29T03:14:34;102354.38;;;2.79;85.37
60852;BME280;48553;50.766;2.900;2023-01-29T03:18:06;102356.06;;;2.80;85.13
60852;BME280;48553;50.766;2.900;2023-01-29T03:21:13;102337.69;;;2.82;85.39
60852;BME280;48553;50.766;2.900;2023-01-29T03:24:43;102343.09;;;2.82;85.55
60852;BME280;48553;50.766;2.900;2023-01-29T03:28:03;102338.41;;;2.78;85.39
60852;BME280;48553;50.766;2.900;2023-01-29T03:31:25;102332.50;;;2.81;85.33
60852;BME280;48553;50.766;2.900;2023-01-29T03:34:50;102334.63;;;2.79;85.40
60852;BME280;48553;50.766;2.900;2023-01-29T03:37:52;102329.22;;;2.79;85.69
60852;BME280;48553;50.766;2.900;2023-01-29T03:40:58;102326.78;;;2.77;85.20
60852;BME280;48553;50.766;2.900;2023-01-29T03:51:01;102330.03;;;2.79;85.54
60852;BME280;48553;50.766;2.900;2023-01-29T03:54:22;102325.09;;;2.76;85.88
60852;BME280;48553;50.766;2.900;2023-01-29T03:57:52;102341.44;;;2.81;85.61
60852;BME280;48553;50.766;2.900;2023-01-29T04:01:00;102333.00;;;2.78;85.91
60852;BME280;48553;50.766;2.900;2023-01-29T04:04:04;102336.75;;;2.77;85.59
60852;BME280;48553;50.766;2.900;2023-01-29T04:10:28;102324.59;;;2.79;85.87
60852;BME280;48553;50.766;2.900;2023-01-29T04:13:30;102327.31;;;2.79;85.37
60852;BME280;48553;50.766;2.900;2023-01-29T04:16:37;102318.16;;;2.80;85.81
60852;BME280;48553;50.766;2.900;2023-01-29T04:19:39;102317.56;;;2.78;85.80
60852;BME280;48553;50.766;2.900;2023-01-29T04:22:44;102316.75;;;2.78;85.57
60852;BME280;48553;50.766;2.900;2023-01-29T04:25:48;102313.78;;;2.79;85.62
60852;BME280;48553;50.766;2.900;2023-01-29T04:29:04;102313.22;;;2.77;85.70
60852;BME280;48553;50.766;2.900;2023-01-29T04:39:19;102304.25;;;2.77;85.71
60852;BME280;48553;50.766;2.900;2023-01-29T04:42:30;102313.22;;;2.77;85.77
60852;BME280;48553;50.766;2.900;2023-01-29T04:55:08;102310.53;;;2.77;85.89
60852;BME280;48553;50.766;2.900;2023-01-29T04:58:31;102305.09;;;2.77;85.84
60852;BME280;48553;50.766;2.900;2023-01-29T05:01:34;102303.22;;;2.78;86.02
60852;BME280;48553;50.766;2.900;2023-01-29T05:04:37;102296.66;;;2.74;86.16
60852;BME280;48553;50.766;2.900;2023-01-29T05:07:39;102291.00;;;2.75;85.63
60852;BME280;48553;50.766;2.900;2023-01-29T05:10:41;102297.22;;;2.76;85.87
60852;BME280;48553;50.766;2.900;2023-01-29T05:13:42;102282.88;;;2.75;85.86
60852;BME280;48553;50.766;2.900;2023-01-29T05:16:46;102287.22;;;2.76;85.93
60852;BME280;48553;50.766;2.900;2023-01-29T05:19:49;102277.19;;;2.77;86.22
60852;BME280;48553;50.766;2.900;2023-01-29T05:22:50;102270.38;;;2.74;86.10
60852;BME280;48553;50.766;2.900;2023-01-29T05:25:50;102265.56;;;2.76;85.91
60852;BME280;48553;50.766;2.900;2023-01-29T05:28:51;102255.81;;;2.75;86.17
60852;BME280;48553;50.766;2.900;2023-01-29T05:31:52;102258.50;;;2.75;85.87
60852;BME280;48553;50.766;2.900;2023-01-29T05:34:52;102248.72;;;2.74;86.31
60852;BME280;48553;50.766;2.900;2023-01-29T05:37:54;102240.03;;;2.72;86.18
60852;BME280;48553;50.766;2.900;2023-01-29T05:40:57;102237.91;;;2.74;86.26
60852;BME280;48553;50.766;2.900;2023-01-29T05:43:58;102239.78;;;2.74;86.35
60852;BME280;48553;50.766;2.900;2023-01-29T05:46:58;102243.06;;;2.76;86.39
60852;BME280;48553;50.766;2.900;2023-01-29T05:50:01;102246.03;;;2.74;86.58
60852;BME280;48553;50.766;2.900;2023-01-29T05:53:02;102249.81;;;2.73;86.41
60852;BME280;48553;50.766;2.900;2023-01-29T05:56:03;102266.88;;;2.74;86.40
60852;BME280;48553;50.766;2.900;2023-01-29T05:59:04;102272.84;;;2.76;86.22
60852;BME280;48553;50.766;2.900;2023-01-29T06:02:05;102273.69;;;2.76;86.43
60852;BME280;48553;50.766;2.900;2023-01-29T06:05:05;102287.22;;;2.76;86.30
60852;BME280;48553;50.766;2.900;2023-01-29T06:08:06;102262.03;;;2.76;86.50
60852;BME280;48553;50.766;2.900;2023-01-29T06:11:09;102264.41;;;2.72;86.58
60852;BME280;48553;50.766;2.900;2023-01-29T06:14:10;102257.66;;;2.75;86.43
60852;BME280;48553;50.766;2.900;2023-01-29T06:17:11;102254.72;;;2.76;86.22
60852;BME280;48553;50.766;2.900;2023-01-29T06:20:11;102260.94;;;2.77;86.10
60852;BME280;48553;50.766;2.900;2023-01-29T06:23:12;102261.22;;;2.75;86.16
60852;BME280;48553;50.766;2.900;2023-01-29T06:26:14;102247.91;;;2.74;86.54
60852;BME280;48553;50.766;2.900;2023-01-29T06:29:14;102241.19;;;2.76;86.52
60852;BME280;48553;50.766;2.900;2023-01-29T06:32:14;102248.00;;;2.79;86.24
60852;BME280;48553;50.766;2.900;2023-01-29T06:35:15;102242.28;;;2.75;86.31
60852;BME280;48553;50.766;2.900;2023-01-29T06:38:15;102235.19;;;2.74;86.65
60852;BME280;48553;50.766;2.900;2023-01-29T06:41:18;102243.31;;;2.74;86.40
60852;BME280;48553;50.766;2.900;2023-01-29T06:44:19;102243.91;;;2.76;86.55
60852;BME280;48553;50.766;2.900;2023-01-29T06:47:20;102236.28;;;2.73;86.75
60852;BME280;48553;50.766;2.900;2023-01-29T06:50:20;102243.31;;;2.74;86.56
60852;BME280;48553;50.766;2.900;2023-01-29T06:53:20;102243.06;;;2.76;86.81
60852;BME280;48553;50.766;2.900;2023-01-29T06:56:22;102236.84;;;2.75;86.89
60852;BME280;48553;50.766;2.900;2023-01-29T06:59:22;102225.75;;;2.77;86.65
60852;BME280;48553;50.766;2.900;2023-01-29T07:02:23;102229.31;;;2.77;86.28
60852;BME280;48553;50.766;2.900;2023-01-29T07:05:23;102219.53;;;2.76;86.63
60852;BME280;48553;50.766;2.900;2023-01-29T07:08:23;102223.56;;;2.74;86.34
60852;BME280;48553;50.766;2.900;2023-01-29T07:11:24;102215.44;;;2.74;86.54
60852;BME280;48553;50.766;2.900;2023-01-29T07:14:24;102226.03;;;2.75;86.81
60852;BME280;48553;50.766;2.900;2023-01-29T07:17:25;102224.94;;;2.76;86.61
60852;BME280;48553;50.766;2.900;2023-01-29T07:20:27;102229.53;;;2.76;86.63
60852;BME280;48553;50.766;2.900;2023-01-29T07:23:28;102231.44;;;2.75;86.88
60852;BME280;48553;50.766;2.900;2023-01-29T07:26:28;102238.47;;;2.76;86.83
60852;BME280;48553;50.766;2.900;2023-01-29T07:29:28;102236.59;;;2.77;86.68
60852;BME280;48553;50.766;2.900;2023-01-29T07:32:29;102234.72;;;2.77;86.74
60852;BME280;48553;50.766;2.900;2023-01-29T07:35:30;102241.75;;;2.78;86.74
60852;BME280;48553;50.766;2.900;2023-01-29T07:38:30;102250.13;;;2.77;86.56
60852;BME280;48553;50.766;2.900;2023-01-29T07:41:31;102236.59;;;2.77;86.77
60852;BME280;48553;50.766;2.900;2023-01-29T07:44:31;102236.84;;;2.75;86.67
60852;BME280;48553;50.766;2.900;2023-01-29T07:47:32;102240.94;;;2.78;86.37
60852;BME280;48553;50.766;2.900;2023-01-29T07:50:33;102234.16;;;2.75;86.65
60852;BME280;48553;50.766;2.900;2023-01-29T07:53:34;102245.56;;;2.77;86.89
60852;BME280;48553;50.766;2.900;2023-01-29T07:56:36;102239.06;;;2.78;86.92
60852;BME280;48553;50.766;2.900;2023-01-29T07:59:36;102233.41;;;2.80;86.71
60852;BME280;48553;50.766;2.900;2023-01-29T08:02:36;102237.75;;;2.81;86.88
60852;BME280;48553;50.766;2.900;2023-01-29T08:05:37;102243.38;;;2.79;86.94
60852;BME280;48553;50.766;2.900;2023-01-29T08:08:37;102238.47;;;2.76;86.98
60852;BME280;48553;50.766;2.900;2023-01-29T08:11:38;102243.38;;;2.79;86.74
60852;BME280;48553;50.766;2.900;2023-01-29T08:14:39;102244.22;;;2.80;86.47
60852;BME280;48553;50.766;2.900;2023-01-29T08:17:40;102237.44;;;2.77;86.87
60852;BME280;48553;50.766;2.900;2023-01-29T08:20:41;102239.06;;;2.78;86.49
60852;BME280;48553;50.766;2.900;2023-01-29T08:23:42;102244.22;;;2.80;86.83
60852;BME280;48553;50.766;2.900;2023-01-29T08:26:42;102235.84;;;2.81;86.55
60852;BME280;48553;50.766;2.900;2023-01-29T08:29:42;102241.84;;;2.83;86.80
60852;BME280;48553;50.766;2.900;2023-01-29T08:32:43;102242.09;;;2.82;86.59
60852;BME280;48553;50.766;2.900;2023-01-29T08:35:50;102247.25;;;2.83;86.55
60852;BME280;48553;50.766;2.900;2023-01-29T08:38:50;102248.06;;;2.84;86.67
60852;BME280;48553;50.766;2.900;2023-01-29T08:41:51;102249.72;;;2.85;86.78
60852;BME280;48553;50.766;2.900;2023-01-29T08:44:51;102243.97;;;2.81;86.84
60852;BME280;48553;50.766;2.900;2023-01-29T08:47:52;102241.59;;;2.85;86.78
60852;BME280;48553;50.766;2.900;2023-01-29T08:50:56;102234.88;;;2.87;87.03
60852;BME280;48553;50.766;2.900;2023-01-29T08:53:56;102243.22;;;2.86;86.79
60852;BME280;48553;50.766;2.900;2023-01-29T08:56:58;102243.00;;;2.87;87.00
60852;BME280;48553;50.766;2.900;2023-01-29T08:59:59;102243.00;;;2.87;87.02
60852;BME280;48553;50.766;2.900;2023-01-29T09:02:59;102234.88;;;2.87;87.03
60852;BME280;48553;50.766;2.900;2023-01-29T09:06:00;102232.16;;;2.87;86.91
60852;BME280;48553;50.766;2.900;2023-01-29T09:09:00;102232.50;;;2.91;87.02
60852;BME280;48553;50.766;2.900;2023-01-29T09:12:01;102232.50;;;2.91;87.25
60852;BME280;48553;50.766;2.900;2023-01-29T09:15:01;102230.03;;;2.89;87.17
60852;BME280;48553;50.766;2.900;2023-01-29T09:18:03;102231.94;;;2.89;87.19
60852;BME280;48553;50.766;2.900;2023-01-29T09:21:04;102233.81;;;2.88;87.55
60852;BME280;48553;50.766;2.900;2023-01-29T09:24:05;102227.91;;;2.91;87.31
60852;BME280;48553;50.766;2.900;2023-01-29T09:27:05;102228.13;;;2.90;87.18
60852;BME280;48553;50.766;2.900;2023-01-29T09:30:06;102228.94;;;2.90;87.34
60852;BME280;48553;50.766;2.900;2023-01-29T09:33:06;102233.06;;;2.93;87.29
60852;BME280;48553;50.766;2.900;2023-01-29T09:36:07;102234.69;;;2.94;87.06
60852;BME280;48553;50.766;2.900;2023-01-29T09:39:08;102243.06;;;2.92;87.37
60852;BME280;48553;50.766;2.900;2023-01-29T09:45:24;102246.34;;;2.95;87.53
60852;BME280;48553;50.766;2.900;2023-01-29T09:48:27;102237.41;;;2.94;87.42
60852;BME280;48553;50.766;2.900;2023-01-29T09:51:34;102225.50;;;2.95;87.39
60852;BME280;48553;50.766;2.900;2023-01-29T09:55:03;102224.69;;;2.95;87.04
60852;BME280;48553;50.766;2.900;2023-01-29T09:58:26;102226.34;;;2.96;87.03
60852;BME280;48553;50.766;2.900;2023-01-29T10:04:50;102204.16;;;2.99;87.39
60852;BME280;48553;50.766;2.900;2023-01-29T10:11:33;102210.41;;;2.99;87.28
60852;BME280;48553;50.766;2.900;2023-01-29T10:15:01;102206.13;;;3.03;87.26
60852;BME280;48553;50.766;2.900;2023-01-29T10:27:51;102204.56;;;3.07;87.46
60852;BME280;48553;50.766;2.900;2023-01-29T10:30:59;102206.19;;;3.08;87.43
60852;BME280;48553;50.766;2.900;2023-01-29T10:34:19;102199.22;;;3.12;87.40
60852;BME280;48553;50.766;2.900;2023-01-29T10:37:24;102195.19;;;3.15;87.64
60852;BME280;48553;50.766;2.900;2023-01-29T10:40:37;102194.72;;;3.18;87.25
60852;BME280;48553;50.766;2.900;2023-01-29T10:50:30;102198.28;;;3.24;87.64
60852;BME280;48553;50.766;2.900;2023-01-29T10:53:56;102201.56;;;3.26;87.52
60852;BME280;48553;50.766;2.900;2023-01-29T11:00:21;102180.22;;;3.29;87.64
60852;BME280;48553;50.766;2.900;2023-01-29T11:03:24;102171.81;;;3.31;87.37
60852;BME280;48553;50.766;2.900;2023-01-29T11:06:29;102166.16;;;3.32;87.60
60852;BME280;48553;50.766;2.900;2023-01-29T11:12:31;102148.91;;;3.39;87.43
60852;BME280;48553;50.766;2.900;2023-01-29T11:15:32;102141.34;;;3.41;87.39
60852;BME280;48553;50.766;2.900;2023-01-29T11:18:52;102138.13;;;3.44;87.36
60852;BME280;48553;50.766;2.900;2023-01-29T11:21:57;102134.66;;;3.48;87.04
60852;BME280;48553;50.766;2.900;2023-01-29T11:28:09;102129.28;;;3.53;87.28
60852;BME280;48553;50.766;2.900;2023-01-29T11:31:38;102117.09;;;3.56;87.19
60852;BME280;48553;50.766;2.900;2023-01-29T11:38:26;102113.72;;;3.66;87.25
60852;BME280;48553;50.766;2.900;2023-01-29T11:41:27;102103.97;;;3.70;87.00
60852;BME280;48553;50.766;2.900;2023-01-29T11:47:32;102097.28;;;3.78;87.15
60852;BME280;48553;50.766;2.900;2023-01-29T11:50:32;102088.06;;;3.79;86.81
60852;BME280;48553;50.766;2.900;2023-01-29T11:53:37;102093.00;;;3.82;86.93
60852;BME280;48553;50.766;2.900;2023-01-29T11:56:41;102080.53;;;3.86;86.51
60852;BME280;48553;50.766;2.900;2023-01-29T11:59:46;102077.31;;;3.89;86.58
60852;BME280;48553;50.766;2.900;2023-01-29T12:03:16;102070.56;;;3.91;86.47
60852;BME280;48553;50.766;2.900;2023-01-29T12:06:30;102069.22;;;3.94;86.42
60852;BME280;48553;50.766;2.900;2023-01-29T12:09:32;102061.66;;;3.96;86.40
60852;BME280;48553;50.766;2.900;2023-01-29T12:12:41;102062.47;;;3.96;86.50
60852;BME280;48553;50.766;2.900;2023-01-29T12:15:42;102054.06;;;3.98;86.48
60852;BME280;48553;50.766;2.900;2023-01-29T12:18:51;102052.47;;;4.02;86.26
60852;BME280;48553;50.766;2.900;2023-01-29T12:22:05;102046.22;;;4.02;86.49
60852;BME280;48553;50.766;2.900;2023-01-29T12:25:33;102042.69;;;4.01;86.54
60852;BME280;48553;50.766;2.900;2023-01-29T12:28:57;102027.50;;;4.00;86.51
60852;BME280;48553;50.766;2.900;2023-01-29T12:35:50;102014.78;;;4.06;86.56
60852;BME280;48553;50.766;2.900;2023-01-29T12:38:54;102007.78;;;4.10;86.85
60852;BME280;48553;50.766;2.900;2023-01-29T12:42:21;101996.69;;;4.16;86.55
60852;BME280;48553;50.766;2.900;2023-01-29T12:45:24;101985.34;;;4.25;86.50
60852;BME280;48553;50.766;2.900;2023-01-29T12:48:31;101978.63;;;4.37;85.89
60852;BME280;48553;50.766;2.900;2023-01-29T12:51:41;101978.16;;;4.56;84.96
60852;BME280;48553;50.766;2.900;2023-01-29T12:58:26;101975.44;;;4.51;85.26
60852;BME280;48553;50.766;2.900;2023-01-29T13:01:35;101964.03;;;4.49;85.53
60852;BME280;48553;50.766;2.900;2023-01-29T13:04:41;101963.22;;;4.48;85.59
60852;BME280;48553;50.766;2.900;2023-01-29T13:07:47;101956.69;;;4.49;85.52
60852;BME280;48553;50.766;2.900;2023-01-29T13:10:53;101948.84;;;4.48;85.59
60852;BME280;48553;50.766;2.900;2023-01-29T13:13:58;101946.94;;;4.48;85.81
60852;BME280;48553;50.766;2.900;2023-01-29T13:17:09;101941.25;;;4.50;85.34
60852;BME280;48553;50.766;2.900;2023-01-29T13:20:18;101930.38;;;4.50;85.95
60852;BME280;48553;50.766;2.900;2023-01-29T13:23:27;101924.97;;;4.50;85.81
60852;BME280;48553;50.766;2.900;2023-01-29T13:26:29;101935.53;;;4.51;85.72
60852;BME280;48553;50.766;2.900;2023-01-29T13:29:31;101926.56;;;4.51;85.75
60852;BME280;48553;50.766;2.900;2023-01-29T13:32:33;101932.81;;;4.51;85.73
60852;BME280;48553;50.766;2.900;2023-01-29T13:35:40;101916.53;;;4.51;85.84
60852;BME280;48553;50.766;2.900;2023-01-29T13:38:42;101911.91;;;4.52;85.96
60852;BME280;48553;50.766;2.900;2023-01-29T13:41:44;101907.31;;;4.52;85.84
60852;BME280;48553;50.766;2.900;2023-01-29T13:44:49;101904.59;;;4.52;85.96
60852;BME280;48553;50.766;2.900;2023-01-29T13:47:51;101896.47;;;4.52;85.99
60852;BME280;48553;50.766;2.900;2023-01-29T13:50:54;101895.63;;;4.52;85.94
60852;BME280;48553;50.766;2.900;2023-01-29T13:53:59;101891.28;;;4.51;86.10
60852;BME280;48553;50.766;2.900;2023-01-29T13:57:01;101891.03;;;4.52;86.08
60852;BME280;48553;50.766;2.900;2023-01-29T14:00:03;101879.06;;;4.53;86.04
60852;BME280;48553;50.766;2.900;2023-01-29T14:06:07;101875.00;;;4.56;86.28
60852;BME280;48553;50.766;2.900;2023-01-29T14:12:32;101863.88;;;4.57;86.27
60852;BME280;48553;50.766;2.900;2023-01-29T14:15:36;101869.31;;;4.57;86.27
60852;BME280;48553;50.766;2.900;2023-01-29T14:18:46;101860.38;;;4.57;86.28
60852;BME280;48553;50.766;2.900;2023-01-29T14:21:49;101858.19;;;4.59;86.33
60852;BME280;48553;50.766;2.900;2023-01-29T14:24:54;101855.50;;;4.59;86.31
60852;BME280;48553;50.766;2.900;2023-01-29T14:27:56;101846.50;;;4.58;86.52
60852;BME280;48553;50.766;2.900;2023-01-29T14:30:58;101851.94;;;4.58;86.69
60852;BME280;48553;50.766;2.900;2023-01-29T14:34:01;101840.56;;;4.62;86.50
60852;BME280;48553;50.766;2.900;2023-01-29T14:37:21;101841.63;;;4.60;86.28
60852;BME280;48553;50.766;2.900;2023-01-29T14:40:25;101837.03;;;4.61;86.47
60852;BME280;48553;50.766;2.900;2023-01-29T14:43:26;101832.41;;;4.62;86.61
60852;BME280;48553;50.766;2.900;2023-01-29T14:46:45;101834.31;;;4.61;86.61
60852;BME280;48553;50.766;2.900;2023-01-29T14:49:57;101829.69;;;4.62;86.80
60852;BME280;48553;50.766;2.900;2023-01-29T14:56:23;101839.47;;;4.63;86.39
60852;BME280;48553;50.766;2.900;2023-01-29T14:59:32;101843.28;;;4.62;86.61
60852;BME280;48553;50.766;2.900;2023-01-29T15:02:41;101834.03;;;4.63;86.74
60852;BME280;48553;50.766;2.900;2023-01-29T15:05:43;101846.00;;;4.62;86.95
60852;BME280;48553;50.766;2.900;2023-01-29T15:08:56;101842.19;;;4.63;86.89
60852;BME280;48553;50.766;2.900;2023-01-29T15:18:34;101822.91;;;4.64;86.90
60852;BME280;48553;50.766;2.900;2023-01-29T15:21:36;101818.28;;;4.65;87.07
60852;BME280;48553;50.766;2.900;2023-01-29T15:24:38;101815.56;;;4.65;87.06
60852;BME280;48553;50.766;2.900;2023-01-29T15:27:42;101812.06;;;4.64;87.24
60852;BME280;48553;50.766;2.900;2023-01-29T15:30:43;101815.31;;;4.66;87.16
60852;BME280;48553;50.766;2.900;2023-01-29T15:33:46;101816.94;;;4.67;87.07
60852;BME280;48553;50.766;2.900;2023-01-29T15:36:48;101819.09;;;4.65;87.41
60852;BME280;48553;50.766;2.900;2023-01-29T15:39:49;101819.09;;;4.65;87.30
60852;BME280;48553;50.766;2.900;2023-01-29T15:42:50;101811.78;;;4.66;87.28
60852;BME280;48553;50.766;2.900;2023-01-29T15:45:52;101816.13;;;4.67;87.61
60852;BME280;48553;50.766;2.900;2023-01-29T15:48:58;101801.75;;;4.66;87.56
60852;BME280;48553;50.766;2.900;2023-01-29T15:52:05;101806.34;;;4.66;87.70
60852;BME280;48553;50.766;2.900;2023-01-29T15:55:09;101788.44;;;4.65;87.70
60852;BME280;48553;50.766;2.900;2023-01-29T15:58:17;101794.41;;;4.67;87.82
60852;BME280;48553;50.766;2.900;2023-01-29T16:01:18;101795.50;;;4.66;87.86
60852;BME280;48553;50.766;2.900;2023-01-29T16:04:25;101792.78;;;4.66;88.25
60852;BME280;48553;50.766;2.900;2023-01-29T16:07:28;101795.75;;;4.64;88.40
60852;BME280;48553;50.766;2.900;2023-01-29T16:10:31;101808.22;;;4.65;88.50
60852;BME280;48553;50.766;2.900;2023-01-29T16:13:34;101792.78;;;4.66;88.33
60852;BME280;48553;50.766;2.900;2023-01-29T16:16:36;101793.03;;;4.64;88.51
60852;BME280;48553;50.766;2.900;2023-01-29T16:19:36;101791.41;;;4.63;88.63
60852;BME280;48553;50.766;2.900;2023-01-29T16:22:37;101794.13;;;4.63;88.66
60852;BME280;48553;50.766;2.900;2023-01-29T16:25:37;101794.13;;;4.63;88.67
60852;BME280;48553;50.766;2.900;2023-01-29T16:28:40;101783.25;;;4.63;88.85
60852;BME280;48553;50.766;2.900;2023-01-29T16:31:42;101781.91;;;4.60;89.04
60852;BME280;48553;50.766;2.900;2023-01-29T16:34:45;101784.59;;;4.60;89.33
60852;BME280;48553;50.766;2.900;2023-01-29T16:37:51;101780.81;;;4.62;89.55
60852;BME280;48553;50.766;2.900;2023-01-29T16:41:17;101787.63;;;4.59;89.98
60852;BME280;48553;50.766;2.900;2023-01-29T16:44:36;101787.63;;;4.59;89.73
60852;BME280;48553;50.766;2.900;2023-01-29T16:47:40;101775.13;;;4.58;89.85
60852;BME280;48553;50.766;2.900;2023-01-29T16:50:40;101775.13;;;4.58;90.01
60852;BME280;48553;50.766;2.900;2023-01-29T16:57:23;101759.09;;;4.56;90.21
60852;BME280;48553;50.766;2.900;2023-01-29T17:00:26;101760.72;;;4.57;90.33
60852;BME280;48553;50.766;2.900;2023-01-29T17:03:29;101767.78;;;4.58;90.42
60852;BME280;48553;50.766;2.900;2023-01-29T17:06:31;101761.53;;;4.58;90.59
60852;BME280;48553;50.766;2.900;2023-01-29T17:09:34;101749.06;;;4.57;90.70
60852;BME280;48553;50.766;2.900;2023-01-29T17:12:36;101759.63;;;4.58;91.05
60852;BME280;48553;50.766;2.900;2023-01-29T17:18:44;101754.50;;;4.57;91.13
60852;BME280;48553;50.766;2.900;2023-01-29T17:21:45;101756.09;;;4.58;91.07
60852;BME280;48553;50.766;2.900;2023-01-29T17:24:46;101757.75;;;4.59;91.11
60852;BME280;48553;50.766;2.900;2023-01-29T17:27:50;101758.81;;;4.58;91.14
60852;BME280;48553;50.766;2.900;2023-01-29T17:30:51;101750.41;;;4.59;91.30
60852;BME280;48553;50.766;2.900;2023-01-29T17:33:51;101749.88;;;4.57;91.60
60852;BME280;48553;50.766;2.900;2023-01-29T17:36:52;101748.78;;;4.58;91.70
60852;BME280;48553;50.766;2.900;2023-01-29T17:39:52;101744.44;;;4.57;91.84
60852;BME280;48553;50.766;2.900;2023-01-29T17:42:55;101750.41;;;4.59;91.77
60852;BME280;48553;50.766;2.900;2023-01-29T17:45:55;101731.66;;;4.58;91.97
60852;BME280;48553;50.766;2.900;2023-01-29T17:48:56;101733.84;;;4.56;92.24
60852;BME280;48553;50.766;2.900;2023-01-29T17:51:56;101728.16;;;4.57;92.26
60852;BME280;48553;50.766;2.900;2023-01-29T17:54:57;101721.06;;;4.56;92.61
60852;BME280;48553;50.766;2.900;2023-01-29T17:57:57;101730.59;;;4.59;92.59
60852;BME280;48553;50.766;2.900;2023-01-29T18:00:58;101735.19;;;4.58;92.70
60852;BME280;48553;50.766;2.900;2023-01-29T18:03:58;101731.13;;;4.56;93.00
60852;BME280;48553;50.766;2.900;2023-01-29T18:06:59;101744.44;;;4.57;92.77
60852;BME280;48553;50.766;2.900;2023-01-29T18:09:59;101730.88;;;4.57;92.92
60852;BME280;48553;50.766;2.900;2023-01-29T18:12:59;101741.19;;;4.55;93.13
60852;BME280;48553;50.766;2.900;2023-01-29T18:16:00;101724.88;;;4.55;93.24
60852;BME280;48553;50.766;2.900;2023-01-29T18:19:01;101730.88;;;4.57;93.03
60852;BME280;48553;50.766;2.900;2023-01-29T18:22:03;101721.91;;;4.57;93.27
60852;BME280;48553;50.766;2.900;2023-01-29T18:25:03;101729.22;;;4.56;93.20